Kerkük, Irak

Saat: 03:30 AM AST Tarih: 03 Mart 2015 (GMT +0300)
Erbeel | Change Station
CLOSE
Current Station
Hava Meydanı
Location: Erbeel,
Yükseklik: 1378 ft
Nearby Weather Stations

Elev 1378 ft 36.15 °N, 44.00 °E | Updated 30 minutes ago

Mostly Cloudy
Çok Bulutlu
50
Feels Like 50
N
8
Rüzgar Değişken Rüzgar from GGD

Bugün
High -- | Low -- F°
--% Chance of Precip.
Dün
High -- | Low -- F°
Precip. -- inç
6:30 AM 5:59 PM
Şişkin Ay, 93% visible
Basınç 30.06 inç
Görüş Uzaklığı 6.2 mil
Bulutlar Az Bulutlu 4000 ft
Çok Bulutlu 8000 ft
Çiğ noktası 43
Nem oranı 76%
Yağış 0.00 inç
Kar Kalınlığı Not available.
0 out of 12
Pollen Not available.
Hava Kalitesi Not available.
Flu Activity Not available.
METAR ORER 030000Z 15007KT 9999 SCT040 BKN080 10/06 Q1018 NOSIG

More Conditions Fewer Conditions

Basınç 30.06 inç
Görüş Uzaklığı 6.2 mil
Bulutlar Az Bulutlu 4000 ft
Çok Bulutlu 8000 ft
Çiğ noktası 43
Nem oranı 76%
Yağış 0.00 inç
Kar Kalınlığı Not available.
0 out of 12
Pollen Not available.
Hava Kalitesi Not available.
Flu Activity Not available.
METAR ORER 030000Z 15007KT 9999 SCT040 BKN080 10/06 Q1018 NOSIG

More Conditions Fewer Conditions

10-Day Weather Forecast

Almanac

Gökbilim

Mar. 03, 2015 Rise Set
Gerçek Zaman
Günlük Tan
Deniz Tanı
Geceyarısı Yıldız Zamanı
Ay
Görünür Işığın Uzunluğu
Günün Uzunluğu
Tomorrow will be .
, % of the Moon is Illuminated

Günün En Yüksekleri

Country Highs Country Lows

Community

WunderPhotos

Upload Photos

1,802,006 photos uploaded!

WunderBlogs® & News

Nearby

Hava Kalitesi

  Hava Kalitesi Hava Kalitesi Endeksi Kirletici
Not available.

Kar Kalınlığı

Station Depth Yükseklik

Earthquake Activity

Şehir Distance Mag. Time & Date
Minimum magnitude displayed is 2.5.

Coastal Water Temperatures

Yer Sıcaklık

Nearby Weather Stations